sensor_id;sensor_type;location;lat;lon;timestamp;P1;durP1;ratioP1;P2;durP2;ratioP2
58685;SDS011;44465;53.206;-6.106;2022-09-27T00:02:00;8.40;;;2.28;;
58685;SDS011;44465;53.206;-6.106;2022-09-27T00:04:25;7.47;;;1.80;;
58685;SDS011;44465;53.206;-6.106;2022-09-27T00:06:52;6.93;;;1.90;;
58685;SDS011;44465;53.206;-6.106;2022-09-27T00:09:17;7.28;;;1.88;;
58685;SDS011;44465;53.206;-6.106;2022-09-27T00:11:43;8.95;;;2.47;;
58685;SDS011;44465;53.206;-6.106;2022-09-27T00:14:13;5.75;;;1.85;;
58685;SDS011;44465;53.206;-6.106;2022-09-27T00:16:41;5.20;;;2.08;;
58685;SDS011;44465;53.206;-6.106;2022-09-27T00:21:39;3.55;;;1.58;;
58685;SDS011;44465;53.206;-6.106;2022-09-27T00:24:06;7.25;;;1.63;;
58685;SDS011;44465;53.206;-6.106;2022-09-27T00:26:31;5.75;;;1.55;;
58685;SDS011;44465;53.206;-6.106;2022-09-27T00:28:57;6.82;;;1.75;;
58685;SDS011;44465;53.206;-6.106;2022-09-27T00:31:24;7.55;;;1.90;;
58685;SDS011;44465;53.206;-6.106;2022-09-27T00:33:56;7.15;;;1.80;;
58685;SDS011;44465;53.206;-6.106;2022-09-27T00:36:23;7.80;;;1.50;;
58685;SDS011;44465;53.206;-6.106;2022-09-27T00:38:50;8.48;;;2.08;;
58685;SDS011;44465;53.206;-6.106;2022-09-27T00:41:19;8.65;;;1.70;;
58685;SDS011;44465;53.206;-6.106;2022-09-27T00:46:34;5.93;;;1.60;;
58685;SDS011;44465;53.206;-6.106;2022-09-27T00:49:06;6.32;;;1.50;;
58685;SDS011;44465;53.206;-6.106;2022-09-27T00:51:37;7.22;;;1.73;;
58685;SDS011;44465;53.206;-6.106;2022-09-27T00:54:07;6.72;;;1.90;;
58685;SDS011;44465;53.206;-6.106;2022-09-27T00:56:37;4.63;;;1.33;;
58685;SDS011;44465;53.206;-6.106;2022-09-27T00:59:24;7.05;;;1.85;;
58685;SDS011;44465;53.206;-6.106;2022-09-27T01:01:56;11.20;;;2.80;;
58685;SDS011;44465;53.206;-6.106;2022-09-27T01:04:23;6.13;;;1.85;;
58685;SDS011;44465;53.206;-6.106;2022-09-27T01:06:52;11.80;;;1.88;;
58685;SDS011;44465;53.206;-6.106;2022-09-27T01:09:21;7.35;;;1.55;;
58685;SDS011;44465;53.206;-6.106;2022-09-27T01:12:12;5.55;;;1.38;;
58685;SDS011;44465;53.206;-6.106;2022-09-27T01:18:00;6.10;;;1.75;;
58685;SDS011;44465;53.206;-6.106;2022-09-27T01:42:41;8.80;;;1.70;;
58685;SDS011;44465;53.206;-6.106;2022-09-27T01:45:20;3.83;;;1.55;;
58685;SDS011;44465;53.206;-6.106;2022-09-27T01:48:21;4.03;;;1.60;;
58685;SDS011;44465;53.206;-6.106;2022-09-27T01:50:57;8.15;;;1.90;;
58685;SDS011;44465;53.206;-6.106;2022-09-27T01:56:23;6.13;;;1.70;;
58685;SDS011;44465;53.206;-6.106;2022-09-27T02:01:47;8.57;;;2.73;;
58685;SDS011;44465;53.206;-6.106;2022-09-27T02:04:26;6.07;;;1.85;;
58685;SDS011;44465;53.206;-6.106;2022-09-27T02:07:07;11.40;;;2.30;;
58685;SDS011;44465;53.206;-6.106;2022-09-27T02:09:41;9.02;;;1.73;;
58685;SDS011;44465;53.206;-6.106;2022-09-27T02:12:26;6.75;;;1.60;;
58685;SDS011;44465;53.206;-6.106;2022-09-27T02:15:03;8.32;;;1.65;;
58685;SDS011;44465;53.206;-6.106;2022-09-27T02:20:32;5.50;;;1.38;;
58685;SDS011;44465;53.206;-6.106;2022-09-27T02:23:09;5.78;;;1.80;;
58685;SDS011;44465;53.206;-6.106;2022-09-27T02:29:14;6.20;;;1.60;;
58685;SDS011;44465;53.206;-6.106;2022-09-27T02:31:50;6.47;;;1.55;;
58685;SDS011;44465;53.206;-6.106;2022-09-27T02:34:23;7.82;;;1.90;;
58685;SDS011;44465;53.206;-6.106;2022-09-27T02:36:52;6.03;;;1.63;;
58685;SDS011;44465;53.206;-6.106;2022-09-27T02:39:19;9.60;;;2.40;;
58685;SDS011;44465;53.206;-6.106;2022-09-27T02:41:52;4.70;;;1.58;;
58685;SDS011;44465;53.206;-6.106;2022-09-27T02:44:22;6.60;;;1.80;;
58685;SDS011;44465;53.206;-6.106;2022-09-27T03:01:30;7.45;;;1.85;;
58685;SDS011;44465;53.206;-6.106;2022-09-27T03:06:45;4.97;;;2.03;;
58685;SDS011;44465;53.206;-6.106;2022-09-27T03:09:16;6.07;;;1.60;;
58685;SDS011;44465;53.206;-6.106;2022-09-27T03:11:45;5.70;;;1.75;;
58685;SDS011;44465;53.206;-6.106;2022-09-27T03:14:11;4.57;;;1.45;;
58685;SDS011;44465;53.206;-6.106;2022-09-27T03:16:44;6.20;;;2.25;;
58685;SDS011;44465;53.206;-6.106;2022-09-27T03:19:30;5.43;;;1.75;;
58685;SDS011;44465;53.206;-6.106;2022-09-27T03:22:25;6.05;;;2.15;;
58685;SDS011;44465;53.206;-6.106;2022-09-27T03:24:51;5.00;;;1.55;;
58685;SDS011;44465;53.206;-6.106;2022-09-27T03:27:17;6.90;;;2.08;;
58685;SDS011;44465;53.206;-6.106;2022-09-27T03:29:42;5.57;;;1.65;;
58685;SDS011;44465;53.206;-6.106;2022-09-27T03:32:08;4.45;;;1.73;;
58685;SDS011;44465;53.206;-6.106;2022-09-27T03:34:52;6.18;;;1.70;;
58685;SDS011;44465;53.206;-6.106;2022-09-27T03:37:21;7.53;;;2.13;;
58685;SDS011;44465;53.206;-6.106;2022-09-27T03:39:47;5.25;;;1.67;;
58685;SDS011;44465;53.206;-6.106;2022-09-27T03:42:13;3.85;;;1.58;;
58685;SDS011;44465;53.206;-6.106;2022-09-27T03:44:44;4.70;;;1.75;;
58685;SDS011;44465;53.206;-6.106;2022-09-27T03:47:10;5.50;;;2.00;;
58685;SDS011;44465;53.206;-6.106;2022-09-27T03:49:37;5.15;;;1.65;;
58685;SDS011;44465;53.206;-6.106;2022-09-27T03:52:03;7.00;;;1.40;;
58685;SDS011;44465;53.206;-6.106;2022-09-27T03:54:29;6.25;;;1.80;;
58685;SDS011;44465;53.206;-6.106;2022-09-27T03:56:55;5.72;;;1.90;;
58685;SDS011;44465;53.206;-6.106;2022-09-27T03:59:21;8.52;;;2.15;;
58685;SDS011;44465;53.206;-6.106;2022-09-27T04:02:05;3.92;;;1.65;;
58685;SDS011;44465;53.206;-6.106;2022-09-27T04:04:56;4.18;;;1.52;;
58685;SDS011;44465;53.206;-6.106;2022-09-27T04:07:22;8.27;;;1.90;;
58685;SDS011;44465;53.206;-6.106;2022-09-27T04:09:48;4.00;;;1.63;;
58685;SDS011;44465;53.206;-6.106;2022-09-27T04:12:14;7.30;;;1.85;;
58685;SDS011;44465;53.206;-6.106;2022-09-27T04:14:39;7.32;;;1.70;;
58685;SDS011;44465;53.206;-6.106;2022-09-27T04:17:24;3.80;;;1.88;;
58685;SDS011;44465;53.206;-6.106;2022-09-27T04:20:12;5.45;;;1.58;;
58685;SDS011;44465;53.206;-6.106;2022-09-27T04:22:40;4.63;;;1.50;;
58685;SDS011;44465;53.206;-6.106;2022-09-27T04:25:08;3.65;;;1.52;;
58685;SDS011;44465;53.206;-6.106;2022-09-27T04:27:36;4.57;;;1.63;;
58685;SDS011;44465;53.206;-6.106;2022-09-27T04:30:05;8.57;;;2.20;;
58685;SDS011;44465;53.206;-6.106;2022-09-27T04:33:05;7.97;;;2.38;;
58685;SDS011;44465;53.206;-6.106;2022-09-27T04:35:49;7.72;;;2.00;;
58685;SDS011;44465;53.206;-6.106;2022-09-27T04:38:37;4.63;;;1.40;;
58685;SDS011;44465;53.206;-6.106;2022-09-27T04:41:04;7.35;;;1.90;;
58685;SDS011;44465;53.206;-6.106;2022-09-27T04:43:33;6.68;;;1.92;;
58685;SDS011;44465;53.206;-6.106;2022-09-27T04:45:58;6.85;;;1.77;;
58685;SDS011;44465;53.206;-6.106;2022-09-27T04:48:24;10.07;;;2.10;;
58685;SDS011;44465;53.206;-6.106;2022-09-27T04:51:00;5.97;;;1.73;;
58685;SDS011;44465;53.206;-6.106;2022-09-27T04:53:27;6.05;;;1.70;;
58685;SDS011;44465;53.206;-6.106;2022-09-27T04:58:20;4.78;;;1.38;;
58685;SDS011;44465;53.206;-6.106;2022-09-27T05:00:47;5.72;;;1.42;;
58685;SDS011;44465;53.206;-6.106;2022-09-27T05:03:39;6.75;;;1.60;;
58685;SDS011;44465;53.206;-6.106;2022-09-27T05:06:10;5.05;;;1.65;;
58685;SDS011;44465;53.206;-6.106;2022-09-27T05:08:36;5.45;;;1.73;;
58685;SDS011;44465;53.206;-6.106;2022-09-27T05:11:31;7.80;;;1.77;;
58685;SDS011;44465;53.206;-6.106;2022-09-27T05:14:14;6.68;;;2.20;;
58685;SDS011;44465;53.206;-6.106;2022-09-27T05:16:49;6.22;;;1.77;;
58685;SDS011;44465;53.206;-6.106;2022-09-27T05:19:42;6.80;;;1.48;;
58685;SDS011;44465;53.206;-6.106;2022-09-27T05:22:18;13.50;;;2.20;;
58685;SDS011;44465;53.206;-6.106;2022-09-27T05:24:45;8.23;;;2.03;;
58685;SDS011;44465;53.206;-6.106;2022-09-27T05:27:14;7.68;;;1.73;;
58685;SDS011;44465;53.206;-6.106;2022-09-27T05:29:47;8.38;;;1.88;;
58685;SDS011;44465;53.206;-6.106;2022-09-27T05:32:18;6.20;;;1.63;;
58685;SDS011;44465;53.206;-6.106;2022-09-27T05:34:48;6.70;;;1.65;;
58685;SDS011;44465;53.206;-6.106;2022-09-27T05:37:17;6.50;;;1.70;;
58685;SDS011;44465;53.206;-6.106;2022-09-27T05:39:43;7.18;;;1.50;;
58685;SDS011;44465;53.206;-6.106;2022-09-27T05:42:12;10.57;;;2.10;;
58685;SDS011;44465;53.206;-6.106;2022-09-27T05:44:38;7.82;;;2.03;;
58685;SDS011;44465;53.206;-6.106;2022-09-27T05:47:04;7.38;;;1.85;;
58685;SDS011;44465;53.206;-6.106;2022-09-27T05:49:36;4.82;;;2.65;;
58685;SDS011;44465;53.206;-6.106;2022-09-27T05:52:04;5.28;;;2.20;;
58685;SDS011;44465;53.206;-6.106;2022-09-27T05:54:30;3.33;;;1.63;;
58685;SDS011;44465;53.206;-6.106;2022-09-27T05:57:02;4.10;;;1.70;;
58685;SDS011;44465;53.206;-6.106;2022-09-27T05:59:38;5.20;;;1.73;;
58685;SDS011;44465;53.206;-6.106;2022-09-27T06:02:20;4.43;;;1.50;;
58685;SDS011;44465;53.206;-6.106;2022-09-27T06:05:04;5.18;;;1.88;;
58685;SDS011;44465;53.206;-6.106;2022-09-27T06:07:31;5.93;;;1.90;;
58685;SDS011;44465;53.206;-6.106;2022-09-27T06:09:58;4.93;;;1.80;;
58685;SDS011;44465;53.206;-6.106;2022-09-27T06:12:24;6.55;;;1.90;;
58685;SDS011;44465;53.206;-6.106;2022-09-27T06:14:49;6.45;;;2.20;;
58685;SDS011;44465;53.206;-6.106;2022-09-27T06:17:28;4.90;;;1.70;;
58685;SDS011;44465;53.206;-6.106;2022-09-27T06:19:54;8.80;;;1.58;;
58685;SDS011;44465;53.206;-6.106;2022-09-27T06:22:22;5.68;;;2.30;;
58685;SDS011;44465;53.206;-6.106;2022-09-27T06:24:55;9.15;;;2.47;;
58685;SDS011;44465;53.206;-6.106;2022-09-27T06:27:23;8.40;;;1.90;;
58685;SDS011;44465;53.206;-6.106;2022-09-27T06:30:09;6.60;;;1.60;;
58685;SDS011;44465;53.206;-6.106;2022-09-27T06:33:02;6.78;;;2.17;;
58685;SDS011;44465;53.206;-6.106;2022-09-27T06:35:37;6.07;;;2.03;;
58685;SDS011;44465;53.206;-6.106;2022-09-27T06:38:04;6.97;;;1.77;;
58685;SDS011;44465;53.206;-6.106;2022-09-27T06:40:34;7.65;;;1.73;;
58685;SDS011;44465;53.206;-6.106;2022-09-27T06:43:35;5.40;;;1.70;;
58685;SDS011;44465;53.206;-6.106;2022-09-27T06:46:04;8.60;;;1.75;;
58685;SDS011;44465;53.206;-6.106;2022-09-27T06:48:48;9.35;;;2.00;;
58685;SDS011;44465;53.206;-6.106;2022-09-27T06:51:17;7.50;;;2.20;;
58685;SDS011;44465;53.206;-6.106;2022-09-27T06:53:44;11.55;;;2.60;;
58685;SDS011;44465;53.206;-6.106;2022-09-27T06:56:10;10.85;;;2.30;;
58685;SDS011;44465;53.206;-6.106;2022-09-27T06:58:55;12.27;;;2.28;;
58685;SDS011;44465;53.206;-6.106;2022-09-27T07:01:44;12.05;;;2.70;;
58685;SDS011;44465;53.206;-6.106;2022-09-27T07:04:42;7.65;;;2.30;;
58685;SDS011;44465;53.206;-6.106;2022-09-27T07:07:13;10.75;;;2.17;;
58685;SDS011;44465;53.206;-6.106;2022-09-27T07:09:43;10.02;;;2.03;;
58685;SDS011;44465;53.206;-6.106;2022-09-27T07:12:10;12.52;;;2.28;;
58685;SDS011;44465;53.206;-6.106;2022-09-27T07:14:38;9.18;;;2.33;;
58685;SDS011;44465;53.206;-6.106;2022-09-27T07:17:04;12.95;;;2.40;;
58685;SDS011;44465;53.206;-6.106;2022-09-27T07:19:35;6.95;;;2.33;;
58685;SDS011;44465;53.206;-6.106;2022-09-27T07:22:03;11.02;;;2.40;;
58685;SDS011;44465;53.206;-6.106;2022-09-27T07:24:29;8.55;;;1.90;;
58685;SDS011;44465;53.206;-6.106;2022-09-27T07:26:55;14.10;;;2.45;;
58685;SDS011;44465;53.206;-6.106;2022-09-27T07:29:21;8.85;;;2.15;;
58685;SDS011;44465;53.206;-6.106;2022-09-27T07:31:49;7.70;;;2.28;;
58685;SDS011;44465;53.206;-6.106;2022-09-27T07:34:14;6.65;;;1.98;;
58685;SDS011;44465;53.206;-6.106;2022-09-27T07:36:43;4.95;;;2.22;;
58685;SDS011;44465;53.206;-6.106;2022-09-27T07:39:08;5.57;;;1.83;;
58685;SDS011;44465;53.206;-6.106;2022-09-27T07:41:34;5.55;;;1.58;;
58685;SDS011;44465;53.206;-6.106;2022-09-27T07:44:00;5.85;;;1.83;;
58685;SDS011;44465;53.206;-6.106;2022-09-27T07:46:28;6.78;;;2.55;;
58685;SDS011;44465;53.206;-6.106;2022-09-27T07:49:16;4.18;;;2.00;;
58685;SDS011;44465;53.206;-6.106;2022-09-27T07:52:12;8.77;;;1.63;;
58685;SDS011;44465;53.206;-6.106;2022-09-27T07:54:58;5.75;;;1.73;;
58685;SDS011;44465;53.206;-6.106;2022-09-27T07:57:36;6.63;;;1.80;;
58685;SDS011;44465;53.206;-6.106;2022-09-27T08:00:03;8.02;;;1.90;;
58685;SDS011;44465;53.206;-6.106;2022-09-27T08:02:38;8.63;;;2.47;;
58685;SDS011;44465;53.206;-6.106;2022-09-27T08:05:05;18.42;;;2.03;;
58685;SDS011;44465;53.206;-6.106;2022-09-27T08:07:31;13.20;;;2.38;;
58685;SDS011;44465;53.206;-6.106;2022-09-27T08:09:58;11.90;;;1.77;;
58685;SDS011;44465;53.206;-6.106;2022-09-27T08:12:23;8.93;;;1.98;;
58685;SDS011;44465;53.206;-6.106;2022-09-27T08:14:49;7.55;;;2.13;;
58685;SDS011;44465;53.206;-6.106;2022-09-27T08:17:15;12.55;;;2.15;;
58685;SDS011;44465;53.206;-6.106;2022-09-27T08:20:01;14.52;;;2.80;;
58685;SDS011;44465;53.206;-6.106;2022-09-27T08:22:59;9.82;;;1.80;;
58685;SDS011;44465;53.206;-6.106;2022-09-27T08:25:33;9.93;;;2.17;;
58685;SDS011;44465;53.206;-6.106;2022-09-27T08:28:02;10.50;;;2.15;;
58685;SDS011;44465;53.206;-6.106;2022-09-27T08:30:34;14.77;;;2.97;;
58685;SDS011;44465;53.206;-6.106;2022-09-27T08:33:00;11.10;;;2.92;;
58685;SDS011;44465;53.206;-6.106;2022-09-27T08:35:28;8.80;;;1.90;;
58685;SDS011;44465;53.206;-6.106;2022-09-27T08:37:55;7.23;;;1.97;;
58685;SDS011;44465;53.206;-6.106;2022-09-27T08:48:39;6.68;;;2.25;;
58685;SDS011;44465;53.206;-6.106;2022-09-27T08:51:12;6.10;;;1.55;;
58685;SDS011;44465;53.206;-6.106;2022-09-27T08:53:40;12.23;;;2.53;;
58685;SDS011;44465;53.206;-6.106;2022-09-27T08:56:18;10.30;;;2.20;;
58685;SDS011;44465;53.206;-6.106;2022-09-27T08:58:48;8.32;;;2.58;;
58685;SDS011;44465;53.206;-6.106;2022-09-27T09:01:23;8.43;;;1.85;;
58685;SDS011;44465;53.206;-6.106;2022-09-27T09:03:58;11.90;;;2.10;;
58685;SDS011;44465;53.206;-6.106;2022-09-27T09:06:35;7.50;;;2.30;;
58685;SDS011;44465;53.206;-6.106;2022-09-27T09:09:22;7.53;;;1.65;;
58685;SDS011;44465;53.206;-6.106;2022-09-27T09:12:52;9.30;;;2.17;;
58685;SDS011;44465;53.206;-6.106;2022-09-27T09:18:29;9.82;;;2.60;;
58685;SDS011;44465;53.206;-6.106;2022-09-27T09:24:44;5.50;;;1.73;;
58685;SDS011;44465;53.206;-6.106;2022-09-27T09:35:32;6.22;;;1.60;;
58685;SDS011;44465;53.206;-6.106;2022-09-27T09:38:35;8.52;;;2.78;;
58685;SDS011;44465;53.206;-6.106;2022-09-27T09:41:06;7.50;;;2.42;;
58685;SDS011;44465;53.206;-6.106;2022-09-27T09:43:44;4.90;;;1.92;;
58685;SDS011;44465;53.206;-6.106;2022-09-27T09:49:04;9.00;;;2.20;;
58685;SDS011;44465;53.206;-6.106;2022-09-27T09:51:41;5.97;;;1.52;;
58685;SDS011;44465;53.206;-6.106;2022-09-27T09:54:18;6.20;;;1.80;;
58685;SDS011;44465;53.206;-6.106;2022-09-27T09:56:55;7.95;;;1.73;;
58685;SDS011;44465;53.206;-6.106;2022-09-27T09:59:45;7.80;;;2.08;;
58685;SDS011;44465;53.206;-6.106;2022-09-27T10:05:09;7.03;;;1.67;;
58685;SDS011;44465;53.206;-6.106;2022-09-27T10:07:39;7.90;;;1.92;;
58685;SDS011;44465;53.206;-6.106;2022-09-27T10:10:06;6.72;;;1.92;;
58685;SDS011;44465;53.206;-6.106;2022-09-27T10:13:04;4.45;;;1.45;;
58685;SDS011;44465;53.206;-6.106;2022-09-27T10:18:11;6.75;;;1.35;;
58685;SDS011;44465;53.206;-6.106;2022-09-27T10:20:42;5.85;;;2.22;;
58685;SDS011;44465;53.206;-6.106;2022-09-27T10:23:15;9.20;;;2.10;;
58685;SDS011;44465;53.206;-6.106;2022-09-27T10:26:03;6.05;;;1.85;;
58685;SDS011;44465;53.206;-6.106;2022-09-27T10:28:43;5.38;;;1.40;;
58685;SDS011;44465;53.206;-6.106;2022-09-27T10:31:15;5.90;;;1.60;;
58685;SDS011;44465;53.206;-6.106;2022-09-27T10:33:59;7.90;;;1.80;;
58685;SDS011;44465;53.206;-6.106;2022-09-27T10:36:37;8.60;;;1.95;;
58685;SDS011;44465;53.206;-6.106;2022-09-27T10:39:04;4.57;;;1.52;;
58685;SDS011;44465;53.206;-6.106;2022-09-27T10:41:40;6.28;;;1.50;;
58685;SDS011;44465;53.206;-6.106;2022-09-27T10:50:02;6.05;;;1.80;;
58685;SDS011;44465;53.206;-6.106;2022-09-27T10:52:45;5.60;;;1.83;;
58685;SDS011;44465;53.206;-6.106;2022-09-27T10:55:20;6.13;;;1.35;;
58685;SDS011;44465;53.206;-6.106;2022-09-27T10:57:51;3.58;;;1.25;;
58685;SDS011;44465;53.206;-6.106;2022-09-27T11:02:44;6.72;;;1.92;;
58685;SDS011;44465;53.206;-6.106;2022-09-27T11:05:29;3.30;;;1.42;;
58685;SDS011;44465;53.206;-6.106;2022-09-27T11:08:15;4.63;;;1.90;;
58685;SDS011;44465;53.206;-6.106;2022-09-27T11:11:04;5.53;;;1.50;;
58685;SDS011;44465;53.206;-6.106;2022-09-27T11:19:02;5.30;;;1.63;;
58685;SDS011;44465;53.206;-6.106;2022-09-27T11:21:49;5.38;;;1.50;;
58685;SDS011;44465;53.206;-6.106;2022-09-27T11:24:42;3.13;;;1.42;;
58685;SDS011;44465;53.206;-6.106;2022-09-27T11:30:09;5.07;;;1.42;;
58685;SDS011;44465;53.206;-6.106;2022-09-27T11:38:16;17.73;;;3.08;;
58685;SDS011;44465;53.206;-6.106;2022-09-27T11:46:28;20.95;;;2.53;;
58685;SDS011;44465;53.206;-6.106;2022-09-27T12:10:59;11.65;;;2.08;;
58685;SDS011;44465;53.206;-6.106;2022-09-27T12:13:37;12.13;;;1.98;;
58685;SDS011;44465;53.206;-6.106;2022-09-27T12:16:06;11.63;;;3.10;;
58685;SDS011;44465;53.206;-6.106;2022-09-27T12:18:36;8.75;;;2.05;;
58685;SDS011;44465;53.206;-6.106;2022-09-27T12:21:17;7.30;;;1.90;;
58685;SDS011;44465;53.206;-6.106;2022-09-27T12:23:44;9.93;;;2.08;;
58685;SDS011;44465;53.206;-6.106;2022-09-27T12:34:46;4.78;;;1.73;;
58685;SDS011;44465;53.206;-6.106;2022-09-27T12:37:23;5.43;;;1.60;;
58685;SDS011;44465;53.206;-6.106;2022-09-27T12:45:20;6.72;;;1.85;;
58685;SDS011;44465;53.206;-6.106;2022-09-27T12:48:13;8.63;;;2.03;;
58685;SDS011;44465;53.206;-6.106;2022-09-27T12:51:23;7.70;;;2.08;;
58685;SDS011;44465;53.206;-6.106;2022-09-27T13:10:49;8.68;;;1.60;;
58685;SDS011;44465;53.206;-6.106;2022-09-27T13:13:33;4.22;;;1.40;;
58685;SDS011;44465;53.206;-6.106;2022-09-27T13:16:00;6.30;;;1.67;;
58685;SDS011;44465;53.206;-6.106;2022-09-27T13:21:03;5.03;;;1.33;;
58685;SDS011;44465;53.206;-6.106;2022-09-27T13:23:51;5.72;;;1.58;;
58685;SDS011;44465;53.206;-6.106;2022-09-27T13:29:21;8.03;;;2.03;;
58685;SDS011;44465;53.206;-6.106;2022-09-27T13:34:39;4.43;;;1.48;;
58685;SDS011;44465;53.206;-6.106;2022-09-27T13:39:49;3.97;;;1.33;;
58685;SDS011;44465;53.206;-6.106;2022-09-27T13:43:25;7.82;;;1.67;;
58685;SDS011;44465;53.206;-6.106;2022-09-27T13:46:20;5.78;;;1.77;;
58685;SDS011;44465;53.206;-6.106;2022-09-27T13:58:04;4.55;;;1.10;;
58685;SDS011;44465;53.206;-6.106;2022-09-27T14:00:10;6.80;;;1.55;;
58685;SDS011;44465;53.206;-6.106;2022-09-27T14:02:49;3.75;;;1.15;;
58685;SDS011;44465;53.206;-6.106;2022-09-27T14:05:17;3.92;;;1.70;;
58685;SDS011;44465;53.206;-6.106;2022-09-27T14:07:48;4.35;;;1.23;;
58685;SDS011;44465;53.206;-6.106;2022-09-27T14:10:17;3.90;;;1.30;;
58685;SDS011;44465;53.206;-6.106;2022-09-27T14:12:47;4.28;;;1.88;;
58685;SDS011;44465;53.206;-6.106;2022-09-27T14:15:17;4.45;;;1.70;;
58685;SDS011;44465;53.206;-6.106;2022-09-27T14:17:47;4.35;;;1.50;;
58685;SDS011;44465;53.206;-6.106;2022-09-27T14:23:12;4.05;;;1.15;;
58685;SDS011;44465;53.206;-6.106;2022-09-27T14:25:45;5.43;;;2.53;;
58685;SDS011;44465;53.206;-6.106;2022-09-27T14:31:15;4.07;;;1.65;;
58685;SDS011;44465;53.206;-6.106;2022-09-27T14:34:05;4.00;;;1.42;;
58685;SDS011;44465;53.206;-6.106;2022-09-27T14:36:37;4.30;;;1.67;;
58685;SDS011;44465;53.206;-6.106;2022-09-27T14:39:27;5.25;;;1.63;;
58685;SDS011;44465;53.206;-6.106;2022-09-27T14:41:58;5.40;;;1.60;;
58685;SDS011;44465;53.206;-6.106;2022-09-27T14:44:24;6.25;;;1.60;;
58685;SDS011;44465;53.206;-6.106;2022-09-27T14:47:14;3.70;;;1.42;;
58685;SDS011;44465;53.206;-6.106;2022-09-27T14:50:06;5.18;;;1.58;;
58685;SDS011;44465;53.206;-6.106;2022-09-27T14:52:41;3.15;;;1.23;;
58685;SDS011;44465;53.206;-6.106;2022-09-27T14:55:08;4.53;;;1.33;;
58685;SDS011;44465;53.206;-6.106;2022-09-27T14:57:44;6.40;;;2.00;;
58685;SDS011;44465;53.206;-6.106;2022-09-27T15:00:16;3.63;;;1.42;;
58685;SDS011;44465;53.206;-6.106;2022-09-27T15:02:44;4.05;;;1.52;;
58685;SDS011;44465;53.206;-6.106;2022-09-27T15:05:12;3.97;;;1.70;;
58685;SDS011;44465;53.206;-6.106;2022-09-27T15:07:42;2.88;;;1.17;;
58685;SDS011;44465;53.206;-6.106;2022-09-27T15:10:19;2.97;;;1.25;;
58685;SDS011;44465;53.206;-6.106;2022-09-27T15:12:49;6.10;;;1.23;;
58685;SDS011;44465;53.206;-6.106;2022-09-27T15:15:35;3.45;;;1.60;;
58685;SDS011;44465;53.206;-6.106;2022-09-27T15:18:27;2.88;;;1.30;;
58685;SDS011;44465;53.206;-6.106;2022-09-27T15:20:57;3.28;;;1.30;;
58685;SDS011;44465;53.206;-6.106;2022-09-27T15:23:25;5.23;;;1.57;;
58685;SDS011;44465;53.206;-6.106;2022-09-27T15:26:13;7.43;;;1.65;;
58685;SDS011;44465;53.206;-6.106;2022-09-27T15:28:49;4.70;;;1.55;;
58685;SDS011;44465;53.206;-6.106;2022-09-27T15:31:16;3.88;;;1.50;;
58685;SDS011;44465;53.206;-6.106;2022-09-27T15:33:51;7.75;;;1.60;;
58685;SDS011;44465;53.206;-6.106;2022-09-27T15:36:50;4.82;;;1.45;;
58685;SDS011;44465;53.206;-6.106;2022-09-27T15:39:16;3.13;;;2.00;;
58685;SDS011;44465;53.206;-6.106;2022-09-27T15:44:44;3.20;;;1.33;;
58685;SDS011;44465;53.206;-6.106;2022-09-27T15:52:49;2.65;;;1.20;;
58685;SDS011;44465;53.206;-6.106;2022-09-27T15:55:20;5.88;;;1.50;;
58685;SDS011;44465;53.206;-6.106;2022-09-27T15:57:57;3.28;;;1.25;;
58685;SDS011;44465;53.206;-6.106;2022-09-27T16:00:26;6.27;;;1.40;;
58685;SDS011;44465;53.206;-6.106;2022-09-27T16:02:52;4.95;;;1.48;;
58685;SDS011;44465;53.206;-6.106;2022-09-27T16:05:18;2.67;;;1.13;;
58685;SDS011;44465;53.206;-6.106;2022-09-27T16:07:44;6.20;;;1.77;;
58685;SDS011;44465;53.206;-6.106;2022-09-27T16:10:16;4.47;;;1.85;;
58685;SDS011;44465;53.206;-6.106;2022-09-27T16:12:44;4.05;;;1.20;;
58685;SDS011;44465;53.206;-6.106;2022-09-27T16:15:10;4.10;;;1.33;;
58685;SDS011;44465;53.206;-6.106;2022-09-27T16:17:37;6.37;;;1.53;;
58685;SDS011;44465;53.206;-6.106;2022-09-27T16:20:04;5.28;;;1.70;;
58685;SDS011;44465;53.206;-6.106;2022-09-27T16:22:30;4.88;;;1.65;;
58685;SDS011;44465;53.206;-6.106;2022-09-27T16:24:56;3.97;;;1.65;;
58685;SDS011;44465;53.206;-6.106;2022-09-27T16:27:25;3.85;;;1.52;;
58685;SDS011;44465;53.206;-6.106;2022-09-27T16:29:54;3.85;;;1.20;;
58685;SDS011;44465;53.206;-6.106;2022-09-27T16:32:22;5.78;;;1.90;;
58685;SDS011;44465;53.206;-6.106;2022-09-27T16:34:48;4.80;;;1.60;;
58685;SDS011;44465;53.206;-6.106;2022-09-27T16:37:14;3.90;;;1.30;;
58685;SDS011;44465;53.206;-6.106;2022-09-27T16:39:39;4.35;;;1.23;;
58685;SDS011;44465;53.206;-6.106;2022-09-27T16:42:05;3.38;;;1.70;;
58685;SDS011;44465;53.206;-6.106;2022-09-27T16:44:32;2.28;;;1.30;;
58685;SDS011;44465;53.206;-6.106;2022-09-27T16:47:03;6.18;;;1.70;;
58685;SDS011;44465;53.206;-6.106;2022-09-27T16:49:29;2.75;;;1.35;;
58685;SDS011;44465;53.206;-6.106;2022-09-27T16:52:13;3.65;;;1.40;;
58685;SDS011;44465;53.206;-6.106;2022-09-27T16:54:40;7.00;;;1.70;;
58685;SDS011;44465;53.206;-6.106;2022-09-27T16:57:06;3.03;;;1.27;;
58685;SDS011;44465;53.206;-6.106;2022-09-27T16:59:32;3.88;;;1.40;;
58685;SDS011;44465;53.206;-6.106;2022-09-27T17:01:58;2.92;;;1.17;;
58685;SDS011;44465;53.206;-6.106;2022-09-27T17:04:24;1.95;;;1.52;;
58685;SDS011;44465;53.206;-6.106;2022-09-27T17:06:51;3.72;;;1.33;;
58685;SDS011;44465;53.206;-6.106;2022-09-27T17:09:18;3.83;;;1.60;;
58685;SDS011;44465;53.206;-6.106;2022-09-27T17:11:45;3.67;;;1.30;;
58685;SDS011;44465;53.206;-6.106;2022-09-27T17:14:10;25.52;;;3.38;;
58685;SDS011;44465;53.206;-6.106;2022-09-27T17:16:44;11.07;;;1.73;;
58685;SDS011;44465;53.206;-6.106;2022-09-27T17:19:11;14.90;;;2.03;;
58685;SDS011;44465;53.206;-6.106;2022-09-27T17:21:37;8.30;;;1.38;;
58685;SDS011;44465;53.206;-6.106;2022-09-27T17:24:04;6.80;;;2.17;;
58685;SDS011;44465;53.206;-6.106;2022-09-27T17:26:30;11.45;;;2.17;;
58685;SDS011;44465;53.206;-6.106;2022-09-27T17:28:56;14.88;;;2.42;;
58685;SDS011;44465;53.206;-6.106;2022-09-27T17:31:27;17.50;;;2.40;;
58685;SDS011;44465;53.206;-6.106;2022-09-27T17:33:55;9.80;;;1.80;;
58685;SDS011;44465;53.206;-6.106;2022-09-27T17:36:28;11.00;;;2.20;;
58685;SDS011;44465;53.206;-6.106;2022-09-27T17:38:57;18.63;;;2.70;;
58685;SDS011;44465;53.206;-6.106;2022-09-27T17:41:27;8.38;;;2.20;;
58685;SDS011;44465;53.206;-6.106;2022-09-27T17:43:54;14.38;;;2.20;;
58685;SDS011;44465;53.206;-6.106;2022-09-27T17:46:23;11.80;;;2.05;;
58685;SDS011;44465;53.206;-6.106;2022-09-27T17:48:50;5.65;;;1.60;;
58685;SDS011;44465;53.206;-6.106;2022-09-27T17:51:36;21.05;;;2.90;;
58685;SDS011;44465;53.206;-6.106;2022-09-27T17:54:03;10.77;;;2.00;;
58685;SDS011;44465;53.206;-6.106;2022-09-27T17:56:31;15.88;;;3.08;;
58685;SDS011;44465;53.206;-6.106;2022-09-27T17:58:57;13.88;;;2.58;;
58685;SDS011;44465;53.206;-6.106;2022-09-27T18:01:25;10.30;;;2.53;;
58685;SDS011;44465;53.206;-6.106;2022-09-27T18:03:51;17.55;;;2.35;;
58685;SDS011;44465;53.206;-6.106;2022-09-27T18:08:44;11.13;;;2.50;;
58685;SDS011;44465;53.206;-6.106;2022-09-27T18:11:13;16.08;;;2.38;;
58685;SDS011;44465;53.206;-6.106;2022-09-27T18:13:41;20.33;;;3.30;;
58685;SDS011;44465;53.206;-6.106;2022-09-27T18:18:38;26.55;;;5.00;;
58685;SDS011;44465;53.206;-6.106;2022-09-27T18:21:05;30.85;;;8.48;;
58685;SDS011;44465;53.206;-6.106;2022-09-27T18:23:39;39.75;;;8.20;;
58685;SDS011;44465;53.206;-6.106;2022-09-27T18:26:06;30.95;;;7.60;;
58685;SDS011;44465;53.206;-6.106;2022-09-27T18:28:36;41.88;;;8.02;;
58685;SDS011;44465;53.206;-6.106;2022-09-27T18:31:04;37.17;;;9.77;;
58685;SDS011;44465;53.206;-6.106;2022-09-27T18:33:33;37.97;;;10.45;;
58685;SDS011;44465;53.206;-6.106;2022-09-27T18:38:29;24.73;;;9.77;;
58685;SDS011;44465;53.206;-6.106;2022-09-27T18:40:55;28.70;;;9.77;;
58685;SDS011;44465;53.206;-6.106;2022-09-27T18:43:24;22.60;;;9.00;;
58685;SDS011;44465;53.206;-6.106;2022-09-27T18:45:50;20.15;;;8.85;;